sensor_id;sensor_type;location;lat;lon;timestamp;temperature;humidity
66119;DHT22;52912;48.564;9.302;2022-12-29T00:01:11;10.47;70.59
66119;DHT22;52912;48.564;9.302;2022-12-29T00:03:37;10.54;70.17
66119;DHT22;52912;48.564;9.302;2022-12-29T00:06:08;10.53;70.07
66119;DHT22;52912;48.564;9.302;2022-12-29T00:08:35;10.59;69.77
66119;DHT22;52912;48.564;9.302;2022-12-29T00:11:00;10.53;69.91
66119;DHT22;52912;48.564;9.302;2022-12-29T00:13:26;10.49;69.91
66119;DHT22;52912;48.564;9.302;2022-12-29T00:15:51;10.59;69.64
66119;DHT22;52912;48.564;9.302;2022-12-29T00:18:17;10.56;69.75
66119;DHT22;52912;48.564;9.302;2022-12-29T00:20:42;10.75;69.07
66119;DHT22;52912;48.564;9.302;2022-12-29T00:23:16;10.80;68.91
66119;DHT22;52912;48.564;9.302;2022-12-29T00:25:43;10.84;68.51
66119;DHT22;52912;48.564;9.302;2022-12-29T00:28:10;10.77;68.92
66119;DHT22;52912;48.564;9.302;2022-12-29T00:30:36;10.81;68.74
66119;DHT22;52912;48.564;9.302;2022-12-29T00:33:09;10.89;68.48
66119;DHT22;52912;48.564;9.302;2022-12-29T00:35:38;10.85;68.44
66119;DHT22;52912;48.564;9.302;2022-12-29T00:38:05;10.87;68.44
66119;DHT22;52912;48.564;9.302;2022-12-29T00:40:32;10.81;68.75
66119;DHT22;52912;48.564;9.302;2022-12-29T00:42:59;10.85;68.47
66119;DHT22;52912;48.564;9.302;2022-12-29T00:45:24;10.84;68.35
66119;DHT22;52912;48.564;9.302;2022-12-29T00:47:50;10.92;68.42
66119;DHT22;52912;48.564;9.302;2022-12-29T00:50:16;10.89;68.44
66119;DHT22;52912;48.564;9.302;2022-12-29T00:52:41;10.89;68.34
66119;DHT22;52912;48.564;9.302;2022-12-29T00:55:07;10.88;68.54
66119;DHT22;52912;48.564;9.302;2022-12-29T00:57:32;10.89;68.53
66119;DHT22;52912;48.564;9.302;2022-12-29T00:59:59;11.02;68.09
66119;DHT22;52912;48.564;9.302;2022-12-29T01:02:25;11.06;67.85
66119;DHT22;52912;48.564;9.302;2022-12-29T01:04:50;11.05;68.05
66119;DHT22;52912;48.564;9.302;2022-12-29T01:07:16;11.04;68.10
66119;DHT22;52912;48.564;9.302;2022-12-29T01:09:41;10.97;68.25
66119;DHT22;52912;48.564;9.302;2022-12-29T01:12:07;10.98;68.56
66119;DHT22;52912;48.564;9.302;2022-12-29T01:14:33;11.02;68.31
66119;DHT22;52912;48.564;9.302;2022-12-29T01:17:00;10.94;68.49
66119;DHT22;52912;48.564;9.302;2022-12-29T01:19:26;10.98;68.20
66119;DHT22;52912;48.564;9.302;2022-12-29T01:21:51;11.01;68.17
66119;DHT22;52912;48.564;9.302;2022-12-29T01:24:18;11.02;68.02
66119;DHT22;52912;48.564;9.302;2022-12-29T01:26:44;11.04;68.15
66119;DHT22;52912;48.564;9.302;2022-12-29T01:29:10;11.09;67.88
66119;DHT22;52912;48.564;9.302;2022-12-29T01:31:35;11.12;67.95
66119;DHT22;52912;48.564;9.302;2022-12-29T01:34:03;11.12;67.98
66119;DHT22;52912;48.564;9.302;2022-12-29T01:36:28;11.15;67.83
66119;DHT22;52912;48.564;9.302;2022-12-29T01:38:54;11.25;67.44
66119;DHT22;52912;48.564;9.302;2022-12-29T01:41:19;11.22;67.58
66119;DHT22;52912;48.564;9.302;2022-12-29T01:43:47;11.30;67.25
66119;DHT22;52912;48.564;9.302;2022-12-29T01:46:21;11.32;67.40
66119;DHT22;52912;48.564;9.302;2022-12-29T01:48:48;11.23;67.69
66119;DHT22;52912;48.564;9.302;2022-12-29T01:51:16;11.09;67.91
66119;DHT22;52912;48.564;9.302;2022-12-29T01:53:43;11.05;67.99
66119;DHT22;52912;48.564;9.302;2022-12-29T01:56:12;11.01;68.24
66119;DHT22;52912;48.564;9.302;2022-12-29T01:58:41;11.06;67.99
66119;DHT22;52912;48.564;9.302;2022-12-29T02:01:08;11.06;68.12
66119;DHT22;52912;48.564;9.302;2022-12-29T02:03:35;11.04;68.11
66119;DHT22;52912;48.564;9.302;2022-12-29T02:06:03;10.98;68.46
66119;DHT22;52912;48.564;9.302;2022-12-29T02:08:32;10.88;68.68
66119;DHT22;52912;48.564;9.302;2022-12-29T02:10:59;10.81;68.88
66119;DHT22;52912;48.564;9.302;2022-12-29T02:13:25;10.85;68.53
66119;DHT22;52912;48.564;9.302;2022-12-29T02:15:56;10.84;68.94
66119;DHT22;52912;48.564;9.302;2022-12-29T02:18:31;10.89;68.68
66119;DHT22;52912;48.564;9.302;2022-12-29T02:27:24;10.80;68.98
66119;DHT22;52912;48.564;9.302;2022-12-29T02:30:05;10.74;69.09
66119;DHT22;52912;48.564;9.302;2022-12-29T02:32:38;10.70;69.20
66119;DHT22;52912;48.564;9.302;2022-12-29T02:35:15;10.72;69.05
66119;DHT22;52912;48.564;9.302;2022-12-29T02:37:51;10.78;68.69
66119;DHT22;52912;48.564;9.302;2022-12-29T02:40:24;10.87;68.66
66119;DHT22;52912;48.564;9.302;2022-12-29T02:42:58;10.82;68.91
66119;DHT22;52912;48.564;9.302;2022-12-29T02:45:30;10.87;68.60
66119;DHT22;52912;48.564;9.302;2022-12-29T02:48:04;10.91;67.96
66119;DHT22;52912;48.564;9.302;2022-12-29T02:50:37;10.89;68.49
66119;DHT22;52912;48.564;9.302;2022-12-29T02:53:06;10.85;68.37
66119;DHT22;52912;48.564;9.302;2022-12-29T02:55:33;10.92;68.03
66119;DHT22;52912;48.564;9.302;2022-12-29T02:58:15;10.91;68.20
66119;DHT22;52912;48.564;9.302;2022-12-29T03:00:50;10.82;68.48
66119;DHT22;52912;48.564;9.302;2022-12-29T03:03:28;10.80;68.52
66119;DHT22;52912;48.564;9.302;2022-12-29T03:06:10;10.85;68.34
66119;DHT22;52912;48.564;9.302;2022-12-29T03:08:44;10.91;67.58
66119;DHT22;52912;48.564;9.302;2022-12-29T03:11:14;10.78;68.29
66119;DHT22;52912;48.564;9.302;2022-12-29T03:13:44;10.81;68.13
66119;DHT22;52912;48.564;9.302;2022-12-29T03:16:18;10.75;68.38
66119;DHT22;52912;48.564;9.302;2022-12-29T03:18:52;10.78;68.06
66119;DHT22;52912;48.564;9.302;2022-12-29T03:21:27;10.92;67.54
66119;DHT22;52912;48.564;9.302;2022-12-29T03:23:55;10.87;68.20
66119;DHT22;52912;48.564;9.302;2022-12-29T03:26:20;10.91;68.00
66119;DHT22;52912;48.564;9.302;2022-12-29T03:28:50;11.09;67.02
66119;DHT22;52912;48.564;9.302;2022-12-29T03:31:17;11.19;66.55
66119;DHT22;52912;48.564;9.302;2022-12-29T03:33:44;11.12;66.87
66119;DHT22;52912;48.564;9.302;2022-12-29T03:36:17;11.32;66.15
66119;DHT22;52912;48.564;9.302;2022-12-29T03:38:46;11.22;66.46
66119;DHT22;52912;48.564;9.302;2022-12-29T03:41:19;11.18;66.76
66119;DHT22;52912;48.564;9.302;2022-12-29T03:43:45;11.23;66.85
66119;DHT22;52912;48.564;9.302;2022-12-29T03:46:11;11.15;66.86
66119;DHT22;52912;48.564;9.302;2022-12-29T03:48:36;11.19;66.74
66119;DHT22;52912;48.564;9.302;2022-12-29T03:51:02;11.26;66.62
66119;DHT22;52912;48.564;9.302;2022-12-29T03:53:29;11.29;66.42
66119;DHT22;52912;48.564;9.302;2022-12-29T03:55:54;11.23;66.73
66119;DHT22;52912;48.564;9.302;2022-12-29T03:58:20;11.30;66.56
66119;DHT22;52912;48.564;9.302;2022-12-29T04:00:45;11.23;66.85
66119;DHT22;52912;48.564;9.302;2022-12-29T04:03:11;11.15;67.38
66119;DHT22;52912;48.564;9.302;2022-12-29T04:05:36;11.26;67.09
66119;DHT22;52912;48.564;9.302;2022-12-29T04:08:01;11.27;66.99
66119;DHT22;52912;48.564;9.302;2022-12-29T04:10:28;11.23;67.10
66119;DHT22;52912;48.564;9.302;2022-12-29T04:12:54;11.37;66.92
66119;DHT22;52912;48.564;9.302;2022-12-29T04:15:19;11.32;67.10
66119;DHT22;52912;48.564;9.302;2022-12-29T04:17:45;11.32;67.21
66119;DHT22;52912;48.564;9.302;2022-12-29T04:20:10;11.25;67.71
66119;DHT22;52912;48.564;9.302;2022-12-29T04:22:36;11.20;67.94
66119;DHT22;52912;48.564;9.302;2022-12-29T04:25:01;11.11;68.32
66119;DHT22;52912;48.564;9.302;2022-12-29T04:27:28;11.11;68.24
66119;DHT22;52912;48.564;9.302;2022-12-29T04:29:53;11.09;68.42
66119;DHT22;52912;48.564;9.302;2022-12-29T04:32:19;11.12;68.43
66119;DHT22;52912;48.564;9.302;2022-12-29T04:34:44;11.08;68.51
66119;DHT22;52912;48.564;9.302;2022-12-29T04:37:10;11.15;68.37
66119;DHT22;52912;48.564;9.302;2022-12-29T04:39:35;11.04;69.05
66119;DHT22;52912;48.564;9.302;2022-12-29T04:42:01;11.09;68.69
66119;DHT22;52912;48.564;9.302;2022-12-29T04:44:27;11.02;68.84
66119;DHT22;52912;48.564;9.302;2022-12-29T04:46:53;10.97;69.15
66119;DHT22;52912;48.564;9.302;2022-12-29T04:49:18;11.02;69.00
66119;DHT22;52912;48.564;9.302;2022-12-29T04:51:44;10.87;69.37
66119;DHT22;52912;48.564;9.302;2022-12-29T04:54:09;10.89;68.99
66119;DHT22;52912;48.564;9.302;2022-12-29T04:56:35;10.81;69.31
66119;DHT22;52912;48.564;9.302;2022-12-29T04:59:00;10.74;69.41
66119;DHT22;52912;48.564;9.302;2022-12-29T05:01:27;10.75;69.34
66119;DHT22;52912;48.564;9.302;2022-12-29T05:03:53;10.89;69.13
66119;DHT22;52912;48.564;9.302;2022-12-29T05:06:18;10.92;69.01
66119;DHT22;52912;48.564;9.302;2022-12-29T05:08:44;10.92;69.04
66119;DHT22;52912;48.564;9.302;2022-12-29T05:11:09;11.05;68.66
66119;DHT22;52912;48.564;9.302;2022-12-29T05:13:35;10.99;68.87
66119;DHT22;52912;48.564;9.302;2022-12-29T05:16:00;11.14;68.47
66119;DHT22;52912;48.564;9.302;2022-12-29T05:18:27;11.09;68.65
66119;DHT22;52912;48.564;9.302;2022-12-29T05:20:53;11.09;68.74
66119;DHT22;52912;48.564;9.302;2022-12-29T05:23:18;11.11;68.69
66119;DHT22;52912;48.564;9.302;2022-12-29T05:25:44;11.05;69.08
66119;DHT22;52912;48.564;9.302;2022-12-29T05:28:09;11.05;68.95
66119;DHT22;52912;48.564;9.302;2022-12-29T05:30:35;11.04;69.07
66119;DHT22;52912;48.564;9.302;2022-12-29T05:33:00;10.97;69.24
66119;DHT22;52912;48.564;9.302;2022-12-29T05:35:27;10.95;69.27
66119;DHT22;52912;48.564;9.302;2022-12-29T05:37:53;10.95;69.23
66119;DHT22;52912;48.564;9.302;2022-12-29T05:40:18;10.87;69.34
66119;DHT22;52912;48.564;9.302;2022-12-29T05:42:43;10.78;69.71
66119;DHT22;52912;48.564;9.302;2022-12-29T05:45:09;10.84;69.58
66119;DHT22;52912;48.564;9.302;2022-12-29T05:47:35;10.81;69.67
66119;DHT22;52912;48.564;9.302;2022-12-29T05:50:00;10.85;69.49
66119;DHT22;52912;48.564;9.302;2022-12-29T05:52:27;10.81;69.83
66119;DHT22;52912;48.564;9.302;2022-12-29T05:54:53;10.87;69.65
66119;DHT22;52912;48.564;9.302;2022-12-29T05:57:18;10.97;69.57
66119;DHT22;52912;48.564;9.302;2022-12-29T05:59:44;10.95;69.83
66119;DHT22;52912;48.564;9.302;2022-12-29T06:02:09;10.95;69.90
66119;DHT22;52912;48.564;9.302;2022-12-29T06:04:35;10.89;70.19
66119;DHT22;52912;48.564;9.302;2022-12-29T06:07:00;10.97;70.12
66119;DHT22;52912;48.564;9.302;2022-12-29T06:09:27;11.04;70.35
66119;DHT22;52912;48.564;9.302;2022-12-29T06:11:53;11.11;69.95
66119;DHT22;52912;48.564;9.302;2022-12-29T06:14:18;11.25;69.78
66119;DHT22;52912;48.564;9.302;2022-12-29T06:16:44;11.26;69.87
66119;DHT22;52912;48.564;9.302;2022-12-29T06:19:09;11.26;70.15
66119;DHT22;52912;48.564;9.302;2022-12-29T06:21:35;11.23;70.32
66119;DHT22;52912;48.564;9.302;2022-12-29T06:24:00;11.43;69.91
66119;DHT22;52912;48.564;9.302;2022-12-29T06:26:27;11.42;70.13
66119;DHT22;52912;48.564;9.302;2022-12-29T06:28:52;11.54;69.69
66119;DHT22;52912;48.564;9.302;2022-12-29T06:31:18;11.44;70.33
66119;DHT22;52912;48.564;9.302;2022-12-29T06:33:43;11.47;70.29
66119;DHT22;52912;48.564;9.302;2022-12-29T06:36:09;11.49;70.22
66119;DHT22;52912;48.564;9.302;2022-12-29T06:38:34;11.61;69.97
66119;DHT22;52912;48.564;9.302;2022-12-29T06:41:00;11.61;70.10
66119;DHT22;52912;48.564;9.302;2022-12-29T06:43:26;11.70;69.67
66119;DHT22;52912;48.564;9.302;2022-12-29T06:45:52;11.57;70.02
66119;DHT22;52912;48.564;9.302;2022-12-29T06:48:17;11.54;70.04
66119;DHT22;52912;48.564;9.302;2022-12-29T06:50:43;11.44;70.47
66119;DHT22;52912;48.564;9.302;2022-12-29T06:53:08;11.43;70.15
66119;DHT22;52912;48.564;9.302;2022-12-29T06:55:34;11.42;70.19
66119;DHT22;52912;48.564;9.302;2022-12-29T06:57:59;11.50;69.82
66119;DHT22;52912;48.564;9.302;2022-12-29T07:00:26;11.46;69.94
66119;DHT22;52912;48.564;9.302;2022-12-29T07:02:54;11.43;70.02
66119;DHT22;52912;48.564;9.302;2022-12-29T07:05:20;11.53;69.81
66119;DHT22;52912;48.564;9.302;2022-12-29T07:07:45;11.47;69.82
66119;DHT22;52912;48.564;9.302;2022-12-29T07:10:11;11.42;69.90
66119;DHT22;52912;48.564;9.302;2022-12-29T07:12:36;11.44;69.90
66119;DHT22;52912;48.564;9.302;2022-12-29T07:15:02;11.44;70.25
66119;DHT22;52912;48.564;9.302;2022-12-29T07:17:29;11.59;69.91
66119;DHT22;52912;48.564;9.302;2022-12-29T07:19:54;11.51;69.97
66119;DHT22;52912;48.564;9.302;2022-12-29T07:22:20;11.56;70.02
66119;DHT22;52912;48.564;9.302;2022-12-29T07:37:40;11.64;69.96
66119;DHT22;52912;48.564;9.302;2022-12-29T11:05:28;12.40;72.38
66119;DHT22;52912;48.564;9.302;2022-12-29T11:29:57;12.92;72.37
66119;DHT22;52912;48.564;9.302;2022-12-29T11:41:50;12.49;78.23
66119;DHT22;52912;48.564;9.302;2022-12-29T11:56:43;12.44;78.43
66119;DHT22;52912;48.564;9.302;2022-12-29T13:36:42;11.67;81.81
66119;DHT22;52912;48.564;9.302;2022-12-29T13:39:12;11.61;81.81
66119;DHT22;52912;48.564;9.302;2022-12-29T13:41:43;11.60;81.83
66119;DHT22;52912;48.564;9.302;2022-12-29T13:44:15;11.66;81.84
66119;DHT22;52912;48.564;9.302;2022-12-29T13:46:44;11.74;81.53
66119;DHT22;52912;48.564;9.302;2022-12-29T13:49:14;11.94;81.26
66119;DHT22;52912;48.564;9.302;2022-12-29T13:51:46;11.96;81.11
66119;DHT22;52912;48.564;9.302;2022-12-29T13:54:21;11.99;81.20
66119;DHT22;52912;48.564;9.302;2022-12-29T13:56:56;11.99;81.14
66119;DHT22;52912;48.564;9.302;2022-12-29T13:59:36;11.84;81.30
66119;DHT22;52912;48.564;9.302;2022-12-29T14:02:11;11.94;81.41
66119;DHT22;52912;48.564;9.302;2022-12-29T14:04:55;12.04;80.96
66119;DHT22;52912;48.564;9.302;2022-12-29T14:07:22;12.11;79.94
66119;DHT22;52912;48.564;9.302;2022-12-29T14:09:49;12.21;79.64
66119;DHT22;52912;48.564;9.302;2022-12-29T14:12:35;12.36;78.61
66119;DHT22;52912;48.564;9.302;2022-12-29T14:15:18;12.29;78.66
66119;DHT22;52912;48.564;9.302;2022-12-29T14:18:00;12.21;78.97
66119;DHT22;52912;48.564;9.302;2022-12-29T14:20:26;12.15;78.55
66119;DHT22;52912;48.564;9.302;2022-12-29T14:22:58;12.09;78.83
66119;DHT22;52912;48.564;9.302;2022-12-29T14:26:00;12.04;79.02
66119;DHT22;52912;48.564;9.302;2022-12-29T14:28:26;12.18;78.84
66119;DHT22;52912;48.564;9.302;2022-12-29T14:30:54;12.11;78.45
66119;DHT22;52912;48.564;9.302;2022-12-29T14:33:20;12.06;78.35
66119;DHT22;52912;48.564;9.302;2022-12-29T14:35:48;12.04;78.44
66119;DHT22;52912;48.564;9.302;2022-12-29T14:38:21;12.04;78.32
66119;DHT22;52912;48.564;9.302;2022-12-29T14:40:47;12.04;78.13
66119;DHT22;52912;48.564;9.302;2022-12-29T14:43:23;11.98;78.22
66119;DHT22;52912;48.564;9.302;2022-12-29T14:45:54;11.89;78.26
66119;DHT22;52912;48.564;9.302;2022-12-29T14:48:47;11.85;78.24
66119;DHT22;52912;48.564;9.302;2022-12-29T14:51:27;11.89;77.90
66119;DHT22;52912;48.564;9.302;2022-12-29T14:53:54;11.82;78.06
66119;DHT22;52912;48.564;9.302;2022-12-29T14:56:25;11.79;77.91
66119;DHT22;52912;48.564;9.302;2022-12-29T14:58:53;11.70;78.43
66119;DHT22;52912;48.564;9.302;2022-12-29T15:01:24;11.63;78.63
66119;DHT22;52912;48.564;9.302;2022-12-29T15:03:57;11.63;78.59
66119;DHT22;52912;48.564;9.302;2022-12-29T15:06:25;11.60;78.44
66119;DHT22;52912;48.564;9.302;2022-12-29T15:08:59;11.59;78.36
66119;DHT22;52912;48.564;9.302;2022-12-29T15:11:41;11.57;78.53
66119;DHT22;52912;48.564;9.302;2022-12-29T15:14:26;11.46;78.86
66119;DHT22;52912;48.564;9.302;2022-12-29T15:16:52;11.36;79.00
66119;DHT22;52912;48.564;9.302;2022-12-29T15:19:21;11.32;79.07
66119;DHT22;52912;48.564;9.302;2022-12-29T15:21:47;11.26;79.28
66119;DHT22;52912;48.564;9.302;2022-12-29T15:24:14;11.25;79.38
66119;DHT22;52912;48.564;9.302;2022-12-29T15:26:42;11.25;79.20
66119;DHT22;52912;48.564;9.302;2022-12-29T15:29:30;11.20;79.33
66119;DHT22;52912;48.564;9.302;2022-12-29T15:31:57;11.12;79.49
66119;DHT22;52912;48.564;9.302;2022-12-29T15:34:24;11.08;79.80
66119;DHT22;52912;48.564;9.302;2022-12-29T15:36:50;11.08;79.68
66119;DHT22;52912;48.564;9.302;2022-12-29T15:39:23;11.06;79.64
66119;DHT22;52912;48.564;9.302;2022-12-29T15:41:55;10.97;79.95
66119;DHT22;52912;48.564;9.302;2022-12-29T15:44:21;10.97;79.93
66119;DHT22;52912;48.564;9.302;2022-12-29T15:46:49;10.94;79.98
66119;DHT22;52912;48.564;9.302;2022-12-29T15:49:15;10.84;80.40
66119;DHT22;52912;48.564;9.302;2022-12-29T15:51:41;10.74;80.61
66119;DHT22;52912;48.564;9.302;2022-12-29T15:54:15;10.71;80.72
66119;DHT22;52912;48.564;9.302;2022-12-29T15:57:15;10.68;80.83
66119;DHT22;52912;48.564;9.302;2022-12-29T15:59:47;10.67;80.72
66119;DHT22;52912;48.564;9.302;2022-12-29T16:02:14;10.63;81.01
66119;DHT22;52912;48.564;9.302;2022-12-29T16:04:42;10.57;81.28
66119;DHT22;52912;48.564;9.302;2022-12-29T16:07:24;10.63;80.66
66119;DHT22;52912;48.564;9.302;2022-12-29T16:09:54;10.70;80.54
66119;DHT22;52912;48.564;9.302;2022-12-29T16:12:23;10.64;80.45
66119;DHT22;52912;48.564;9.302;2022-12-29T16:28:17;10.82;79.52
66119;DHT22;52912;48.564;9.302;2022-12-29T16:30:43;10.85;79.49
66119;DHT22;52912;48.564;9.302;2022-12-29T16:33:32;10.77;79.66
66119;DHT22;52912;48.564;9.302;2022-12-29T16:36:01;10.70;79.74
66119;DHT22;52912;48.564;9.302;2022-12-29T16:38:31;10.67;80.11
66119;DHT22;52912;48.564;9.302;2022-12-29T18:25:37;10.19;82.15
66119;DHT22;52912;48.564;9.302;2022-12-29T18:30:51;10.09;82.57
66119;DHT22;52912;48.564;9.302;2022-12-29T18:33:18;10.06;82.71
66119;DHT22;52912;48.564;9.302;2022-12-29T18:35:47;10.01;82.95
66119;DHT22;52912;48.564;9.302;2022-12-29T18:38:13;10.01;82.96
66119;DHT22;52912;48.564;9.302;2022-12-29T18:40:40;9.98;83.21
66119;DHT22;52912;48.564;9.302;2022-12-29T18:43:05;9.94;83.15
66119;DHT22;52912;48.564;9.302;2022-12-29T18:45:32;9.94;83.22
66119;DHT22;52912;48.564;9.302;2022-12-29T18:47:58;9.91;83.42
66119;DHT22;52912;48.564;9.302;2022-12-29T18:50:23;9.88;83.42
66119;DHT22;52912;48.564;9.302;2022-12-29T18:52:49;9.97;83.12
66119;DHT22;52912;48.564;9.302;2022-12-29T18:55:17;9.97;83.13
66119;DHT22;52912;48.564;9.302;2022-12-29T18:57:45;10.08;84.19
66119;DHT22;52912;48.564;9.302;2022-12-29T19:00:12;10.19;83.57
66119;DHT22;52912;48.564;9.302;2022-12-29T19:02:38;10.32;83.06
66119;DHT22;52912;48.564;9.302;2022-12-29T19:05:05;10.52;82.58
66119;DHT22;52912;48.564;9.302;2022-12-29T19:07:38;10.70;81.85
66119;DHT22;52912;48.564;9.302;2022-12-29T19:10:04;10.65;81.97
66119;DHT22;52912;48.564;9.302;2022-12-29T19:12:33;10.71;82.18
66119;DHT22;52912;48.564;9.302;2022-12-29T19:15:00;10.88;81.77
66119;DHT22;52912;48.564;9.302;2022-12-29T19:17:25;10.88;82.08
66119;DHT22;52912;48.564;9.302;2022-12-29T19:19:50;10.81;82.19
66119;DHT22;52912;48.564;9.302;2022-12-29T19:22:16;10.60;81.84
66119;DHT22;52912;48.564;9.302;2022-12-29T19:24:41;10.71;82.57
66119;DHT22;52912;48.564;9.302;2022-12-29T19:27:07;10.52;83.02
66119;DHT22;52912;48.564;9.302;2022-12-29T19:29:51;10.22;84.74
66119;DHT22;52912;48.564;9.302;2022-12-29T19:32:18;10.09;85.13
66119;DHT22;52912;48.564;9.302;2022-12-29T19:34:43;9.98;85.65
66119;DHT22;52912;48.564;9.302;2022-12-29T19:37:09;9.95;85.99
66119;DHT22;52912;48.564;9.302;2022-12-29T19:39:34;9.75;87.08
66119;DHT22;52912;48.564;9.302;2022-12-29T19:42:00;9.74;87.79
66119;DHT22;52912;48.564;9.302;2022-12-29T19:44:25;9.64;88.05
66119;DHT22;52912;48.564;9.302;2022-12-29T19:46:51;9.61;88.59
66119;DHT22;52912;48.564;9.302;2022-12-29T19:49:18;9.46;88.69
66119;DHT22;52912;48.564;9.302;2022-12-29T19:51:43;9.48;89.09
66119;DHT22;52912;48.564;9.302;2022-12-29T19:54:09;9.53;88.50
66119;DHT22;52912;48.564;9.302;2022-12-29T19:56:34;9.44;88.77
66119;DHT22;52912;48.564;9.302;2022-12-29T19:59:00;9.32;89.33
66119;DHT22;52912;48.564;9.302;2022-12-29T20:01:25;9.23;89.50
66119;DHT22;52912;48.564;9.302;2022-12-29T20:03:51;9.19;89.77
66119;DHT22;52912;48.564;9.302;2022-12-29T20:06:21;9.35;89.35
66119;DHT22;52912;48.564;9.302;2022-12-29T20:08:46;9.30;89.26
66119;DHT22;52912;48.564;9.302;2022-12-29T20:11:14;9.23;89.36
66119;DHT22;52912;48.564;9.302;2022-12-29T20:13:40;9.14;89.79
66119;DHT22;52912;48.564;9.302;2022-12-29T20:16:08;9.08;90.05
66119;DHT22;52912;48.564;9.302;2022-12-29T20:18:34;9.04;90.49
66119;DHT22;52912;48.564;9.302;2022-12-29T20:21:01;9.04;91.01
66119;DHT22;52912;48.564;9.302;2022-12-29T20:23:28;8.95;90.33
66119;DHT22;52912;48.564;9.302;2022-12-29T20:25:54;8.89;90.92
66119;DHT22;52912;48.564;9.302;2022-12-29T20:28:20;8.81;91.14
66119;DHT22;52912;48.564;9.302;2022-12-29T20:30:56;8.84;91.43
66119;DHT22;52912;48.564;9.302;2022-12-29T20:33:22;8.91;92.21
66119;DHT22;52912;48.564;9.302;2022-12-29T20:35:48;8.89;92.01
66119;DHT22;52912;48.564;9.302;2022-12-29T20:38:13;8.82;91.60
66119;DHT22;52912;48.564;9.302;2022-12-29T20:40:40;8.65;91.50
66119;DHT22;52912;48.564;9.302;2022-12-29T20:43:05;8.68;91.12
66119;DHT22;52912;48.564;9.302;2022-12-29T20:45:31;8.64;91.16
66119;DHT22;52912;48.564;9.302;2022-12-29T20:47:56;8.56;91.66
66119;DHT22;52912;48.564;9.302;2022-12-29T20:50:22;8.47;92.44
66119;DHT22;52912;48.564;9.302;2022-12-29T20:52:47;8.50;92.06
66119;DHT22;52912;48.564;9.302;2022-12-29T20:55:13;8.59;92.13
66119;DHT22;52912;48.564;9.302;2022-12-29T20:57:40;8.53;91.14
66119;DHT22;52912;48.564;9.302;2022-12-29T21:00:06;8.39;92.90
66119;DHT22;52912;48.564;9.302;2022-12-29T21:02:32;8.28;93.61
66119;DHT22;52912;48.564;9.302;2022-12-29T21:04:57;8.29;93.55
66119;DHT22;52912;48.564;9.302;2022-12-29T21:07:22;8.11;93.68
66119;DHT22;52912;48.564;9.302;2022-12-29T21:09:48;8.11;93.92
66119;DHT22;52912;48.564;9.302;2022-12-29T21:12:13;8.06;94.26
66119;DHT22;52912;48.564;9.302;2022-12-29T21:14:40;8.01;94.13
66119;DHT22;52912;48.564;9.302;2022-12-29T21:17:06;8.01;94.36
66119;DHT22;52912;48.564;9.302;2022-12-29T21:19:31;7.94;94.46
66119;DHT22;52912;48.564;9.302;2022-12-29T21:21:57;7.91;94.17
66119;DHT22;52912;48.564;9.302;2022-12-29T21:24:22;7.91;94.35
66119;DHT22;52912;48.564;9.302;2022-12-29T21:26:48;7.75;95.11
66119;DHT22;52912;48.564;9.302;2022-12-29T21:29:13;7.85;94.81
66119;DHT22;52912;48.564;9.302;2022-12-29T21:31:40;7.75;95.23
66119;DHT22;52912;48.564;9.302;2022-12-29T21:34:05;7.71;95.07
66119;DHT22;52912;48.564;9.302;2022-12-29T21:36:31;7.73;95.77
66119;DHT22;52912;48.564;9.302;2022-12-29T21:38:57;7.62;95.73
66119;DHT22;52912;48.564;9.302;2022-12-29T21:41:23;7.69;95.59
66119;DHT22;52912;48.564;9.302;2022-12-29T21:43:49;7.70;95.66
66119;DHT22;52912;48.564;9.302;2022-12-29T21:46:15;7.64;95.74
66119;DHT22;52912;48.564;9.302;2022-12-29T21:48:42;7.57;95.80
66119;DHT22;52912;48.564;9.302;2022-12-29T21:51:10;7.55;96.17
66119;DHT22;52912;48.564;9.302;2022-12-29T21:53:38;7.49;96.12
66119;DHT22;52912;48.564;9.302;2022-12-29T21:56:05;7.43;96.54
66119;DHT22;52912;48.564;9.302;2022-12-29T21:58:30;7.53;96.26
66119;DHT22;52912;48.564;9.302;2022-12-29T22:00:56;7.47;96.35
66119;DHT22;52912;48.564;9.302;2022-12-29T22:03:21;7.46;96.37
66119;DHT22;52912;48.564;9.302;2022-12-29T22:05:48;7.40;96.54
66119;DHT22;52912;48.564;9.302;2022-12-29T22:08:14;7.39;96.56
66119;DHT22;52912;48.564;9.302;2022-12-29T22:10:40;7.43;96.63
66119;DHT22;52912;48.564;9.302;2022-12-29T22:13:06;7.47;95.97
66119;DHT22;52912;48.564;9.302;2022-12-29T22:15:33;7.33;96.21
66119;DHT22;52912;48.564;9.302;2022-12-29T22:18:00;7.47;96.02
66119;DHT22;52912;48.564;9.302;2022-12-29T22:20:27;7.33;96.13
66119;DHT22;52912;48.564;9.302;2022-12-29T22:22:54;7.45;95.76
66119;DHT22;52912;48.564;9.302;2022-12-29T22:25:21;7.30;95.76
66119;DHT22;52912;48.564;9.302;2022-12-29T22:27:47;7.25;95.84
66119;DHT22;52912;48.564;9.302;2022-12-29T22:30:13;7.30;95.74
66119;DHT22;52912;48.564;9.302;2022-12-29T22:32:40;7.21;95.68
66119;DHT22;52912;48.564;9.302;2022-12-29T22:35:06;7.22;95.63
66119;DHT22;52912;48.564;9.302;2022-12-29T22:37:32;7.21;95.58
66119;DHT22;52912;48.564;9.302;2022-12-29T22:39:59;7.30;94.84
66119;DHT22;52912;48.564;9.302;2022-12-29T22:42:25;7.26;94.76
66119;DHT22;52912;48.564;9.302;2022-12-29T22:44:50;7.16;94.72
66119;DHT22;52912;48.564;9.302;2022-12-29T22:47:16;7.21;94.87
66119;DHT22;52912;48.564;9.302;2022-12-29T22:49:41;7.12;95.26
66119;DHT22;52912;48.564;9.302;2022-12-29T22:52:07;7.28;94.05
66119;DHT22;52912;48.564;9.302;2022-12-29T22:54:32;7.21;94.53
66119;DHT22;52912;48.564;9.302;2022-12-29T22:56:59;7.19;94.16
66119;DHT22;52912;48.564;9.302;2022-12-29T22:59:24;7.23;94.21
66119;DHT22;52912;48.564;9.302;2022-12-29T23:01:50;7.18;93.98
66119;DHT22;52912;48.564;9.302;2022-12-29T23:04:15;7.12;93.63
66119;DHT22;52912;48.564;9.302;2022-12-29T23:06:41;7.07;94.02
66119;DHT22;52912;48.564;9.302;2022-12-29T23:09:08;7.08;94.02
66119;DHT22;52912;48.564;9.302;2022-12-29T23:11:34;7.08;93.23
66119;DHT22;52912;48.564;9.302;2022-12-29T23:14:01;7.12;92.92
66119;DHT22;52912;48.564;9.302;2022-12-29T23:16:27;7.23;91.89
66119;DHT22;52912;48.564;9.302;2022-12-29T23:18:52;7.23;91.69
66119;DHT22;52912;48.564;9.302;2022-12-29T23:21:18;7.21;91.72
66119;DHT22;52912;48.564;9.302;2022-12-29T23:23:44;7.14;91.52
66119;DHT22;52912;48.564;9.302;2022-12-29T23:26:10;7.16;91.41
66119;DHT22;52912;48.564;9.302;2022-12-29T23:28:35;7.15;91.35
66119;DHT22;52912;48.564;9.302;2022-12-29T23:31:03;7.09;91.98
66119;DHT22;52912;48.564;9.302;2022-12-29T23:33:29;7.04;91.62
66119;DHT22;52912;48.564;9.302;2022-12-29T23:35:54;7.08;91.98
66119;DHT22;52912;48.564;9.302;2022-12-29T23:38:20;7.04;92.16
66119;DHT22;52912;48.564;9.302;2022-12-29T23:40:45;7.02;92.61
66119;DHT22;52912;48.564;9.302;2022-12-29T23:43:10;7.04;92.31
66119;DHT22;52912;48.564;9.302;2022-12-29T23:45:36;6.97;92.76